CST,Max TemperatureF,Mean TemperatureF,Min TemperatureF,Max Dew PointF,MeanDew PointF,Min DewpointF,Max Humidity, Mean Humidity, Min Humidity, Max Sea Level PressureIn, Mean Sea Level PressureIn, Min Sea Level PressureIn, Max VisibilityMiles, Mean VisibilityMiles, Min VisibilityMiles, Max Wind SpeedMPH, Mean Wind SpeedMPH, Max Gust SpeedMPH,PrecipitationIn, CloudCover, Events, WindDirDegrees
2012-12-1,61,46,30,52,43,30,98,84,71,30.11,30.00,29.88,10,7,2,18,8,22,0.00,3,,159
2012-12-2,63,54,45,55,51,45,97,84,69,30.04,29.96,29.87,10,6,0,17,9,25,0.00,5,Fog,276
2012-12-3,70,57,44,61,56,44,97,83,68,30.01,29.87,29.76,10,7,0,30,12,37,0.00,7,Fog-Rain,192
2012-12-4,58,47,36,47,35,31,79,62,36,30.31,30.13,29.95,10,10,10,17,10,21,0.00,1,,304
2012-12-5,42,34,27,30,25,19,83,67,44,30.43,30.33,30.19,10,10,10,12,8,17,0.00,0,,91
2012-12-6,50,42,34,41,35,30,85,75,59,30.18,30.01,29.91,10,10,7,15,10,18,0.00,3,Rain,182
2012-12-7,45,42,39,42,39,37,96,88,78,29.95,29.91,29.88,10,7,2,13,6,,0.08,8,Rain,32
2012-12-8,41,38,35,38,34,32,95,86,70,30.06,29.99,29.85,10,9,2,14,9,21,0.03,7,Rain,40
2012-12-9,41,36,32,40,36,30,100,90,79,30.04,29.85,29.75,10,6,1,22,11,28,0.15,8,Rain,98
2012-12-10,31,29,27,29,25,24,93,88,84,29.98,29.86,29.78,10,9,5,24,16,30,0.00,8,,280
2012-12-11,35,28,20,24,22,18,92,77,57,30.16,30.04,29.98,10,10,10,17,9,24,0.00,1,,227
2012-12-12,45,34,24,30,25,20,86,72,46,30.28,30.23,30.16,10,10,10,18,11,24,0.00,0,,189
2012-12-13,48,39,30,31,28,25,87,69,43,30.26,30.18,30.10,10,10,10,21,12,26,0.00,0,,191
2012-12-14,49,39,29,37,31,26,86,73,53,30.19,30.11,29.99,10,10,10,15,7,,0.00,1,Rain,160
2012-12-15,50,46,42,48,42,35,94,87,72,29.99,29.70,29.55,10,8,2,24,14,31,0.18,8,Rain,178
2012-12-16,49,43,37,46,38,33,93,87,82,29.75,29.67,29.59,10,7,3,17,11,22,0.00,8,,275
2012-12-17,37,35,33,34,32,29,93,88,82,29.75,29.72,29.67,10,7,4,7,4,,0.00,8,,308
2012-12-18,45,38,32,38,33,28,89,84,75,29.87,29.70,29.55,10,7,3,22,9,31,0.00,8,,218
2012-12-19,39,36,33,38,33,30,94,88,81,30.05,29.95,29.68,10,5,2,24,8,24,0.30,7,Rain-Thunderstorm,65
2012-12-20,52,40,28,48,37,25,96,92,83,29.65,29.32,29.03,10,5,1,41,20,54,0.42,8,Rain-Snow,24
2012-12-21,27,22,16,24,16,12,87,81,74,30.22,30.02,29.66,10,10,10,30,21,40,0.00,2,,293
2012-12-22,32,22,12,25,17,9,93,82,69,30.24,30.12,29.93,10,10,7,10,6,,0.00,0,,189
2012-12-23,32,24,16,29,23,15,94,88,73,30.03,29.97,29.91,10,7,5,13,4,,0.00,2,,35
2012-12-24,30,28,26,27,26,24,94,89,86,30.12,29.95,29.85,10,8,4,15,9,18,0.00,7,,341
2012-12-25,30,24,18,24,20,14,86,83,78,30.32,30.24,30.13,10,10,10,16,10,18,0.00,5,,10
2012-12-26,32,30,27,26,24,21,86,80,67,30.16,30.08,30.00,10,10,10,22,16,31,0.00,8,,4
2012-12-27,30,28,25,28,24,21,87,82,77,30.19,30.14,30.11,10,10,10,14,7,17,0.00,8,,30
2012-12-28,32,30,28,31,28,24,98,88,79,30.11,29.99,29.88,10,6,1,13,6,,0.00,8,Snow,149
2012-12-29,30,23,16,29,21,12,96,86,79,30.26,30.04,29.87,10,7,2,23,12,29,0.00,7,Snow,297
2012-12-30,34,24,14,29,23,12,89,77,66,30.35,30.22,30.07,10,9,5,18,7,24,0.00,0,,200
2012-12-31,36,28,21,27,22,15,83,74,64,30.15,30.08,30.03,10,10,10,20,15,25,0.00,5,,279